Lublin, Poland

12:18 PM CEST on September 22, 2014 (GMT +0200)
Ponikwoda | Change Station
CLOSE
Current Station
Personal Weather Station
Location: Lublin, LUBELSKIE
Elevation: 636 ft
Nearby Weather Stations

Elev 636 ft 51.27 °N, 22.58 °E | Updated 18 minutes ago

Rain
Rain
54.7 °F
Feels Like 54.7 °F
N
2.2
Wind Variable Wind from East
Gusts 3.8 mph

Today
High -- | Low -- °F
--% Chance of Precip.
Yesterday
High -- | Low -- °F
Precip. -- in
6:16 AM 6:29 PM
Waning Crescent, 3% visible
Pressure 29.68 in
Visibility 3.1 miles
Clouds Scattered Clouds 1100 ft
Overcast 4700 ft
Dew Point 54 °F
Humidity 97%
Rainfall 0.19 in
Snow Depth Not available.
UV 1 out of 12
Pollen Not available.
Air Quality Not available.
Flu Activity Not available.
METAR EPLB 221000Z 29011KT 5000 RA SCT011 OVC047 12/11 Q1005

More Conditions Fewer Conditions

Pressure 29.68 in
Visibility 3.1 miles
Clouds Scattered Clouds 1100 ft
Overcast 4700 ft
Dew Point 54 °F
Humidity 97%
Rainfall 0.19 in
Snow Depth Not available.
UV 1 out of 12
Pollen Not available.
Air Quality Not available.
Flu Activity Not available.
METAR EPLB 221000Z 29011KT 5000 RA SCT011 OVC047 12/11 Q1005

More Conditions Fewer Conditions

10-Day Weather Forecast

Almanac

Astronomy

Sep. 22, 2014 Rise Set
Actual Time 6:16 AM CEST 6:29 PM CEST
Civil Twilight 5:42 AM CEST 7:02 PM CEST
Nautical Twilight 5:03 AM CEST 7:41 PM CEST
Astronomical Twilight 4:22 AM CEST 8:22 PM CEST
Moon 4:18 AM CEST 5:32 PM CEST
Length of Visible Light 13h 19m
Length of Day
12h 13m
Tomorrow will be 3m 52s shorter.
Waning Crescent, 3% of the Moon is Illuminated
Today
Waning Crescent
Sep 24
New
Oct 1
First Quarter
Oct 8
Full
Oct 15
Last Quarter

Yesterday's Extremes

Country Highs Country Lows

Community

WunderPhotos

Upload Photos

1,755,404 photos uploaded!

Nearby

Snow Depth

Not available.

Earthquake Activity

City Distance Mag. Time & Date
No recent earthquake activity has been reported nearby.
Minimum magnitude displayed is 2.5.

Coastal Water Temperatures

Place Temperature
No Stations Reporting

Nearby Weather Stations